Terminal Aerodrome Forecast
Issued by NWS

Home | Current Version | Previous Version | Text Only | Print | Product List | Glossary On
Versions: 1 2 3 4 5 6 7 8 9 10 11 12 13 14 15 16 17 18
000
FTUS44 KMOB 281727
TAFBFM
TAF
KBFM 281727Z 2818/2918 35007KT P6SM -RA VCSH FEW005 SCT045 BKN100
      TEMPO 2819/2822 VRB25KT 4SM TSRA BKN025CB
     FM290000 18004KT P6SM SCT250
     FM290600 19002KT P6SM OVC007
     FM290900 00000KT 4SM BR OVC004=

USA.gov is the U.S. government's official web portal to all federal, state and local government web resources and services.